Sinegorsk — YJRC5 — position and weather

sailwx.info

Track history (hours):
 
Tides and Currents Weather Stations Pressure Air Temp Water Temp Dewpoint Dewpoint Depression Visibility Wind Speed Wind Dir Waves Ship Positions

Sinegorsk

Last reported at 2014-Sep-30 17:32 UTC. Time now 2014-Sep-30 21:57 UTC.
Position N 36°27' W 008°42'.

Length 133 m; draft 8.3 m.

Type: Cargo ship. MMSI: 576292000.

Date/timePositionNaut miles runAvg speedWind from/ knotsBaromVisibWave heightAir tempDewpointWater temp
2014-Sep-30 17:32N 36°27' W 008°42'1110.7
2014-Sep-30 16:33N 36°29' W 008°55'1110.5
2014-Sep-30 15:33N 36°32' W 009°07'1110.5
2014-Sep-30 14:32N 36°36' W 009°20'1010.6
2014-Sep-30 13:33N 36°44' W 009°28'1110.5
2014-Sep-30 12:33N 36°53' W 009°34'1110.9
2014-Sep-30 11:32N 37°04' W 009°38'1110.8
2014-Sep-30 10:33N 37°14' W 009°41'1010.4
2014-Sep-30 09:33N 37°24' W 009°43'1110.4
2014-Sep-30 08:31N 37°35' W 009°46'1210.3
2014-Sep-30 07:21N 37°47' W 009°50'910.5
2014-Sep-30 06:32N 37°55' W 009°52'1010.5
2014-Sep-30 05:33N 38°05' W 009°55'  
2014-Sep-26 12:33N 50°26' W 000°23'19 8.9
2014-Sep-26 10:25N 50°32' E 000°06'7 7.6
2014-Sep-26 09:29N 50°33' E 000°17'8 8.1
2014-Sep-26 08:33N 50°36' E 000°28'9 9.3
2014-Sep-26 07:33N 50°40' E 000°41'1110.7
2014-Sep-26 06:33N 50°47' E 000°54'1111.1
2014-Sep-26 05:31N 50°54' E 001°08'1010.4
2014-Sep-26 04:34N 51°01' E 001°20'9 9.3
2014-Sep-26 03:33N 51°06' E 001°32'8 7.6
2014-Sep-26 02:33N 51°11' E 001°41'7 7.2
2014-Sep-26 01:33N 51°17' E 001°49'8 8.0
2014-Sep-26 00:33N 51°24' E 001°54'10 9.6
2014-Sep-25 23:34N 51°32' E 002°03'1110.8
2014-Sep-25 22:33N 51°40' E 002°15'353 9.8
2014-Sep-24 10:24N 56°42' E 007°27'910.5
2014-Sep-24 09:33N 56°50' E 007°36'1010.2
2014-Sep-24 08:32N 56°59' E 007°47'108 9.0
2014-Sep-23 20:31N 57°46' E 010°46'7 5.2
2014-Sep-23 19:13N 57°40' E 010°52'8 9.7
2014-Sep-23 18:24N 57°38' E 011°07'8 9.9
2014-Sep-23 17:33N 57°33' E 011°18'1010.3
2014-Sep-23 16:34N 57°24' E 011°29'1111.1
2014-Sep-23 15:33N 57°14' E 011°35'2211.0
2014-Sep-23 13:34N 56°53' E 011°49'1110.5
2014-Sep-23 12:33N 56°43' E 011°51'128 9.1
2014-Sep-22 22:32N 54°37' E 011°10'10 9.9
2014-Sep-22 21:34N 54°33' E 011°25'1110.5
2014-Sep-22 20:34N 54°28' E 011°41'10 9.7
2014-Sep-22 19:34N 54°27' E 011°58'9 8.7
2014-Sep-22 18:34N 54°30' E 012°11'1010.2
2014-Sep-22 17:34N 54°39' E 012°21'1110.8
2014-Sep-22 16:33N 54°45' E 012°37'1210.0
2014-Sep-22 15:21N 54°50' E 012°55'8 9.9
2014-Sep-22 14:34N 54°52' E 013°08'1210.3
2014-Sep-22 13:25N 54°56' E 013°28'1110.1
2014-Sep-22 12:19N 55°00' E 013°46'1810.2
2014-Sep-22 10:33N 55°09' E 014°13'1110.7
2014-Sep-22 09:33N 55°18' E 014°25'1110.8
2014-Sep-22 08:33N 55°26' E 014°37'1110.3
2014-Sep-22 07:30N 55°32' E 014°53'2410.2
2014-Sep-22 05:11N 55°44' E 015°29'810.4
2014-Sep-22 04:27N 55°48' E 015°41'1310.3
2014-Sep-22 03:13N 55°54' E 016°00'710.4
2014-Sep-22 02:33N 55°58' E 016°11'5410.2
2014-Sep-21 21:16N 56°41' E 017°08'1010.6
2014-Sep-21 20:19N 56°51' E 017°15'911.0
2014-Sep-21 19:32N 56°59' E 017°20'1111.0
2014-Sep-21 18:31N 57°09' E 017°28'1010.8
2014-Sep-21 17:34N 57°19' E 017°35'1110.4
2014-Sep-21 16:32N 57°29' E 017°43'2210.5
2014-Sep-21 14:26N 57°47' E 018°04'1010.4
2014-Sep-21 13:30N 57°56' E 018°13'  
Track history (hours):
 
Tides and Currents Weather Stations Pressure Air Temp Water Temp Dewpoint Dewpoint Depression Visibility Wind Speed Wind Dir Waves Ship Positions

Sinegorsk

Last reported at 2014-Sep-30 17:32 UTC. Time now 2014-Sep-30 21:57 UTC.
Position N 36°27' W 008°42'.

Length 133 m; draft 8.3 m.

Type: Cargo ship. MMSI: 576292000.

Date/timePositionNaut miles runAvg speedWind from/ knotsBaromVisibWave heightAir tempDewpointWater temp
2014-Sep-30 17:32N 36°27' W 008°42'1110.7
2014-Sep-30 16:33N 36°29' W 008°55'1110.5
2014-Sep-30 15:33N 36°32' W 009°07'1110.5
2014-Sep-30 14:32N 36°36' W 009°20'1010.6
2014-Sep-30 13:33N 36°44' W 009°28'1110.5
2014-Sep-30 12:33N 36°53' W 009°34'1110.9
2014-Sep-30 11:32N 37°04' W 009°38'1110.8
2014-Sep-30 10:33N 37°14' W 009°41'1010.4
2014-Sep-30 09:33N 37°24' W 009°43'1110.4
2014-Sep-30 08:31N 37°35' W 009°46'1210.3
2014-Sep-30 07:21N 37°47' W 009°50'910.5
2014-Sep-30 06:32N 37°55' W 009°52'1010.5
2014-Sep-30 05:33N 38°05' W 009°55'  
2014-Sep-26 12:33N 50°26' W 000°23'19 8.9
2014-Sep-26 10:25N 50°32' E 000°06'7 7.6
2014-Sep-26 09:29N 50°33' E 000°17'8 8.1
2014-Sep-26 08:33N 50°36' E 000°28'9 9.3
2014-Sep-26 07:33N 50°40' E 000°41'1110.7
2014-Sep-26 06:33N 50°47' E 000°54'1111.1
2014-Sep-26 05:31N 50°54' E 001°08'1010.4
2014-Sep-26 04:34N 51°01' E 001°20'9 9.3
2014-Sep-26 03:33N 51°06' E 001°32'8 7.6
2014-Sep-26 02:33N 51°11' E 001°41'7 7.2
2014-Sep-26 01:33N 51°17' E 001°49'8 8.0
2014-Sep-26 00:33N 51°24' E 001°54'10 9.6
2014-Sep-25 23:34N 51°32' E 002°03'1110.8
2014-Sep-25 22:33N 51°40' E 002°15'353 9.8
2014-Sep-24 10:24N 56°42' E 007°27'910.5
2014-Sep-24 09:33N 56°50' E 007°36'1010.2
2014-Sep-24 08:32N 56°59' E 007°47'108 9.0
2014-Sep-23 20:31N 57°46' E 010°46'7 5.2
2014-Sep-23 19:13N 57°40' E 010°52'8 9.7
2014-Sep-23 18:24N 57°38' E 011°07'8 9.9
2014-Sep-23 17:33N 57°33' E 011°18'1010.3
2014-Sep-23 16:34N 57°24' E 011°29'1111.1
2014-Sep-23 15:33N 57°14' E 011°35'2211.0
2014-Sep-23 13:34N 56°53' E 011°49'1110.5
2014-Sep-23 12:33N 56°43' E 011°51'128 9.1
2014-Sep-22 22:32N 54°37' E 011°10'10 9.9
2014-Sep-22 21:34N 54°33' E 011°25'1110.5
2014-Sep-22 20:34N 54°28' E 011°41'10 9.7
2014-Sep-22 19:34N 54°27' E 011°58'9 8.7
2014-Sep-22 18:34N 54°30' E 012°11'1010.2
2014-Sep-22 17:34N 54°39' E 012°21'1110.8
2014-Sep-22 16:33N 54°45' E 012°37'1210.0
2014-Sep-22 15:21N 54°50' E 012°55'8 9.9
2014-Sep-22 14:34N 54°52' E 013°08'1210.3
2014-Sep-22 13:25N 54°56' E 013°28'1110.1
2014-Sep-22 12:19N 55°00' E 013°46'1810.2
2014-Sep-22 10:33N 55°09' E 014°13'1110.7
2014-Sep-22 09:33N 55°18' E 014°25'1110.8
2014-Sep-22 08:33N 55°26' E 014°37'1110.3
2014-Sep-22 07:30N 55°32' E 014°53'2410.2
2014-Sep-22 05:11N 55°44' E 015°29'810.4
2014-Sep-22 04:27N 55°48' E 015°41'1310.3
2014-Sep-22 03:13N 55°54' E 016°00'710.4
2014-Sep-22 02:33N 55°58' E 016°11'5410.2
2014-Sep-21 21:16N 56°41' E 017°08'1010.6
2014-Sep-21 20:19N 56°51' E 017°15'911.0
2014-Sep-21 19:32N 56°59' E 017°20'1111.0
2014-Sep-21 18:31N 57°09' E 017°28'1010.8
2014-Sep-21 17:34N 57°19' E 017°35'1110.4
2014-Sep-21 16:32N 57°29' E 017°43'2210.5
2014-Sep-21 14:26N 57°47' E 018°04'1010.4
2014-Sep-21 13:30N 57°56' E 018°13'  

Dump ship's entire track history